Time;durP1;ratioP1;P1;durP2;ratioP2;P2;SDS_P1;SDS_P2;PMS_P1;PMS_P2;Temp;Humidity;BMP_temperature;BMP_pressure;BME280_temperature;BME280_humidity;BME280_pressure;Samples;Min_cycle;Max_cycle;Signal;HPM_P1;HPM_P2
2022/05/27 00:00:17;;;;;;;1.38;1.13;;;16.50;91.20;;;;;;4934391;28;20085;-79
2022/05/27 00:02:43;;;;;;;2.53;1.00;;;16.40;91.40;;;;;;4995881;28;20035;-79
2022/05/27 00:05:09;;;;;;;3.35;1.20;;;16.50;90.90;;;;;;4936662;28;20041;-79
2022/05/27 00:07:34;;;;;;;1.92;1.05;;;16.50;91.20;;;;;;4985148;28;20106;-79
2022/05/27 00:10:00;;;;;;;1.05;0.80;;;16.40;91.20;;;;;;4983726;28;20053;-79
2022/05/27 00:12:25;;;;;;;1.63;0.93;;;16.40;91.60;;;;;;4967817;28;20505;-80
2022/05/27 00:14:51;;;;;;;1.80;1.00;;;16.40;91.70;;;;;;4986045;28;20038;-79
2022/05/27 00:17:17;;;;;;;6.88;1.10;;;16.40;91.90;;;;;;4968873;28;20027;-79
2022/05/27 00:19:43;;;;;;;2.25;0.93;;;16.30;91.90;;;;;;4989139;28;20042;-79
2022/05/27 00:22:08;;;;;;;1.60;0.77;;;16.30;92.00;;;;;;4951369;28;20405;-79
2022/05/27 00:24:36;;;;;;;1.80;0.90;;;16.30;92.20;;;;;;4945491;28;20356;-79
2022/05/27 00:27:02;;;;;;;3.67;1.50;;;16.30;92.30;;;;;;5003010;28;20088;-80
2022/05/27 00:29:27;;;;;;;1.45;0.80;;;16.20;92.40;;;;;;4989057;28;20031;-80
2022/05/27 00:31:53;;;;;;;4.72;1.15;;;16.30;92.20;;;;;;4988921;28;20069;-80
2022/05/27 00:34:18;;;;;;;2.58;1.33;;;16.20;92.50;;;;;;4960795;28;20058;-80
2022/05/27 00:36:44;;;;;;;1.55;0.95;;;16.20;92.60;;;;;;4983854;28;20090;-80
2022/05/27 00:39:09;;;;;;;2.88;1.52;;;16.20;92.80;;;;;;4937789;28;20065;-80
2022/05/27 00:41:35;;;;;;;4.88;1.08;;;16.20;92.80;;;;;;4936199;28;20101;-80
2022/05/27 00:44:01;;;;;;;3.47;1.50;;;16.10;93.20;;;;;;4965112;28;20192;-80
2022/05/27 00:46:29;;;;;;;2.72;2.05;;;16.10;93.50;;;;;;4965906;28;20493;-80
2022/05/27 00:48:59;;;;;;;2.42;0.85;;;16.00;94.20;;;;;;4987706;28;20046;-80
2022/05/27 00:51:26;;;;;;;1.95;1.42;;;15.90;93.80;;;;;;4995881;28;20415;-79
2022/05/27 00:53:57;;;;;;;2.15;1.00;;;15.90;94.70;;;;;;4997566;28;20591;-80
2022/05/27 00:56:23;;;;;;;1.13;1.02;;;15.90;95.00;;;;;;4981121;28;20242;-80
2022/05/27 00:58:55;;;;;;;1.67;1.10;;;15.80;95.20;;;;;;4950099;28;20481;-79
2022/05/27 01:01:20;;;;;;;0.70;0.68;;;15.70;95.50;;;;;;5001713;28;20030;-80
2022/05/27 01:03:46;;;;;;;1.55;1.10;;;15.70;95.80;;;;;;4986404;28;20428;-79
2022/05/27 01:06:13;;;;;;;2.25;0.93;;;15.80;96.00;;;;;;4983409;28;20486;-80
2022/05/27 01:08:38;;;;;;;1.90;1.13;;;15.70;96.30;;;;;;4990946;28;21453;-80
2022/05/27 01:11:11;;;;;;;3.17;1.60;;;15.70;96.50;;;;;;4947229;28;20035;-80
2022/05/27 01:13:57;;;;;;;2.88;1.40;;;15.70;97.20;;;;;;4970016;28;20038;-80
2022/05/27 01:16:23;;;;;;;0.98;0.98;;;15.70;97.30;;;;;;4995469;28;20405;-80
2022/05/27 01:22:29;;;;;;;5.05;1.77;;;15.60;98.00;;;;;;4963146;28;20405;-80
2022/05/27 01:24:58;;;;;;;4.93;1.50;;;15.60;98.10;;;;;;4981022;28;20461;-80
2022/05/27 01:27:44;;;;;;;2.97;1.63;;;15.60;98.20;;;;;;4978784;28;20215;-80
2022/05/27 01:30:26;;;;;;;2.25;1.27;;;15.60;98.20;;;;;;4951576;28;20046;-80
2022/05/27 01:33:06;;;;;;;4.25;1.77;;;15.60;98.60;;;;;;4948631;28;20042;-79
2022/05/27 01:35:44;;;;;;;1.15;1.05;;;15.60;98.60;;;;;;4950926;28;20101;-79
2022/05/27 01:38:20;;;;;;;2.88;1.35;;;15.50;98.90;;;;;;4982133;28;20038;-79
2022/05/27 01:41:15;;;;;;;1.92;1.25;;;15.60;99.20;;;;;;4970784;28;20037;-78
2022/05/27 01:43:56;;;;;;;2.22;0.90;;;15.60;99.40;;;;;;4965954;28;20023;-79
2022/05/27 01:46:33;;;;;;;2.22;1.33;;;15.60;99.40;;;;;;4950940;28;20486;-80
2022/05/27 01:49:02;;;;;;;3.70;1.60;;;15.60;99.50;;;;;;4945869;28;20027;-80
2022/05/27 01:51:33;;;;;;;2.65;1.77;;;15.60;99.70;;;;;;4965711;28;20030;-80
2022/05/27 01:54:36;;;;;;;3.33;1.05;;;15.50;99.80;;;;;;4968011;28;20853;-79
2022/05/27 01:57:29;;;;;;;2.60;1.50;;;15.50;99.60;;;;;;4922223;29;20032;-80
2022/05/27 02:00:06;;;;;;;3.90;1.65;;;15.60;99.90;;;;;;4925199;28;20058;-80
2022/05/27 02:02:31;;;;;;;4.00;2.03;;;15.50;99.90;;;;;;4971946;28;20324;-80
2022/05/27 02:05:06;;;;;;;3.65;2.03;;;15.40;99.90;;;;;;4978867;28;20031;-80
2022/05/27 02:07:47;;;;;;;4.28;2.13;;;15.40;99.90;;;;;;4980476;28;20078;-79
2022/05/27 02:10:32;;;;;;;5.10;1.75;;;15.30;99.90;;;;;;4950483;28;20042;-79
2022/05/27 02:13:02;;;;;;;5.63;2.15;;;15.40;99.90;;;;;;4967742;28;20045;-80
2022/05/27 02:15:39;;;;;;;5.18;2.40;;;15.30;99.90;;;;;;4977602;28;20113;-79
2022/05/27 02:18:24;;;;;;;1.65;1.17;;;15.30;99.90;;;;;;4995252;28;20049;-80
2022/05/27 02:20:57;;;;;;;3.25;1.27;;;15.30;99.90;;;;;;4961251;28;20035;-79
2022/05/27 02:23:40;;;;;;;2.50;1.20;;;15.20;99.90;;;;;;4960022;28;20054;-79
2022/05/27 02:26:11;;;;;;;3.38;1.50;;;15.20;99.90;;;;;;4980587;28;20109;-79
2022/05/27 02:28:38;;;;;;;2.53;1.50;;;15.10;99.90;;;;;;4996693;28;20027;-79
2022/05/27 02:31:07;;;;;;;2.95;1.98;;;15.10;99.90;;;;;;4963188;28;20502;-79
2022/05/27 02:36:25;;;;;;;3.17;1.13;;;15.00;99.90;;;;;;4962415;28;20040;-78
2022/05/27 02:38:51;;;;;;;5.50;1.70;;;14.80;99.90;;;;;;4981168;28;20109;-78
2022/05/27 02:41:45;;;;;;;5.70;1.65;;;14.90;99.90;;;;;;4980568;28;20057;-79
2022/05/27 02:44:32;;;;;;;5.90;2.30;;;14.80;99.90;;;;;;4964194;28;20031;-79
2022/05/27 02:47:02;;;;;;;;;;;14.80;99.90;;;;;;4971609;28;20076;-79
2022/05/27 02:49:34;;;;;;;6.43;1.83;;;14.70;99.90;;;;;;4959959;28;20278;-77
2022/05/27 02:52:06;;;;;;;6.28;1.30;;;14.70;99.90;;;;;;4995215;28;20050;-77
2022/05/27 02:54:43;;;;;;;3.13;1.80;;;14.70;99.90;;;;;;4980252;28;20065;-77
2022/05/27 02:57:28;;;;;;;2.22;1.77;;;14.70;99.90;;;;;;4965127;28;20064;-77
2022/05/27 02:59:54;;;;;;;5.00;2.53;;;14.60;99.90;;;;;;4947970;28;20073;-77
2022/05/27 03:02:20;;;;;;;3.80;1.90;;;14.50;99.90;;;;;;4992391;28;20042;-77
2022/05/27 03:04:48;;;;;;;4.55;1.90;;;14.50;99.90;;;;;;4944529;28;20053;-78
2022/05/27 03:07:25;;;;;;;2.03;1.25;;;14.40;99.90;;;;;;4943834;28;20247;-77
2022/05/27 03:10:00;;;;;;;1.55;1.30;;;14.50;99.90;;;;;;4974770;28;20031;-77
2022/05/27 03:13:02;;;;;;;5.43;2.38;;;14.30;99.90;;;;;;4950100;28;20290;-77
2022/05/27 03:15:53;;;;;;;3.90;2.05;;;14.20;99.90;;;;;;4975905;28;20026;-77
2022/05/27 03:18:41;;;;;;;4.18;1.90;;;14.20;99.90;;;;;;4981560;28;20112;-77
2022/05/27 03:21:06;;;;;;;5.93;1.70;;;14.20;99.90;;;;;;4981470;28;20105;-77
2022/05/27 03:23:44;;;;;;;1.85;1.20;;;14.10;99.90;;;;;;4981650;28;20541;-77
2022/05/27 03:26:51;;;;;;;2.70;2.45;;;14.20;99.90;;;;;;4996049;28;20034;-80
2022/05/27 03:29:28;;;;;;;5.05;3.05;;;14.10;99.90;;;;;;4951583;28;20041;-80
2022/05/27 03:32:19;;;;;;;4.88;2.75;;;13.90;99.90;;;;;;4986042;28;20367;-80
2022/05/27 03:35:39;;;;;;;4.13;2.45;;;13.90;99.90;;;;;;4999378;28;20486;-80
2022/05/27 03:38:16;;;;;;;6.43;3.25;;;13.90;99.90;;;;;;4924833;29;20027;-81
2022/05/27 03:41:15;;;;;;;9.57;5.05;;;13.80;99.90;;;;;;4960444;28;20042;-80
2022/05/27 03:43:42;;;;;;;5.47;3.40;;;13.60;99.90;;;;;;4959710;28;20031;-80
2022/05/27 03:46:08;;;;;;;4.93;3.25;;;13.70;99.90;;;;;;4935746;28;20500;-80
2022/05/27 03:48:34;;;;;;;2.70;1.73;;;13.60;99.90;;;;;;4959918;28;20034;-80
2022/05/27 03:51:27;;;;;;;4.85;2.17;;;13.50;99.90;;;;;;4977014;28;20109;-80
2022/05/27 03:54:05;;;;;;;4.22;2.20;;;13.50;99.90;;;;;;4965733;28;20041;-80
2022/05/27 03:56:39;;;;;;;2.95;1.60;;;13.30;99.90;;;;;;4962153;28;20030;-80
2022/05/27 03:59:05;;;;;;;4.97;2.13;;;13.30;99.90;;;;;;4996191;28;20046;-80
2022/05/27 04:01:31;;;;;;;3.38;2.00;;;13.30;99.90;;;;;;4976442;28;20031;-80
2022/05/27 04:04:00;;;;;;;3.22;1.88;;;13.30;99.90;;;;;;4945970;28;20445;-80
2022/05/27 04:06:27;;;;;;;3.13;2.00;;;13.40;99.90;;;;;;4927713;28;20109;-79
2022/05/27 04:08:53;;;;;;;4.72;1.92;;;13.40;99.90;;;;;;4999712;28;20129;-80
2022/05/27 04:11:19;;;;;;;3.70;2.53;;;13.30;99.90;;;;;;4945257;28;20114;-80
2022/05/27 04:13:45;;;;;;;2.47;1.92;;;13.30;99.90;;;;;;4996834;28;20034;-80
2022/05/27 04:16:10;;;;;;;3.80;2.47;;;13.30;99.90;;;;;;4944188;28;20049;-80
2022/05/27 04:18:36;;;;;;;3.42;2.15;;;13.40;99.90;;;;;;4994443;28;20042;-81
2022/05/27 04:21:02;;;;;;;2.47;2.20;;;13.30;99.90;;;;;;4943470;28;20412;-80
2022/05/27 04:23:28;;;;;;;2.90;1.95;;;13.30;99.90;;;;;;4976294;28;20042;-80
2022/05/27 04:25:53;;;;;;;4.72;2.20;;;13.30;99.90;;;;;;4983225;28;20346;-80
2022/05/27 04:28:19;;;;;;;3.45;1.70;;;13.40;99.90;;;;;;4976961;28;20132;-78
2022/05/27 04:30:45;;;;;;;3.22;1.98;;;13.50;99.90;;;;;;4942506;28;20061;-77
2022/05/27 04:33:11;;;;;;;4.40;1.77;;;13.50;99.90;;;;;;4961790;28;20038;-78
2022/05/27 04:35:36;;;;;;;5.10;2.25;;;13.40;99.90;;;;;;4993821;28;20093;-77
2022/05/27 04:38:02;;;;;;;5.00;2.05;;;13.40;99.90;;;;;;4962801;28;20500;-77
2022/05/27 04:40:28;;;;;;;2.72;1.70;;;13.50;99.90;;;;;;4940474;28;20023;-77
2022/05/27 04:42:53;;;;;;;2.78;1.75;;;13.50;99.90;;;;;;4995397;28;20035;-77
2022/05/27 04:45:22;;;;;;;3.35;1.88;;;13.50;99.90;;;;;;4995629;28;20038;-77
2022/05/27 04:47:47;;;;;;;2.95;1.70;;;13.50;99.90;;;;;;4947304;28;20034;-77
2022/05/27 04:50:14;;;;;;;5.50;1.55;;;13.50;99.90;;;;;;4977862;28;20060;-77
2022/05/27 04:52:39;;;;;;;3.38;1.73;;;13.50;99.90;;;;;;4963034;28;20053;-78
2022/05/27 04:55:07;;;;;;;1.73;1.48;;;13.50;99.90;;;;;;4983129;28;20030;-77
2022/05/27 04:57:38;;;;;;;2.25;1.63;;;13.50;99.90;;;;;;4994905;28;20038;-77
2022/05/27 05:00:09;;;;;;;2.15;1.40;;;13.50;99.90;;;;;;4981216;28;20044;-77
2022/05/27 05:02:34;;;;;;;2.03;1.63;;;13.50;99.90;;;;;;4977173;28;20662;-77
2022/05/27 05:05:00;;;;;;;1.75;1.45;;;13.50;99.90;;;;;;4960736;28;20038;-77
2022/05/27 05:07:25;;;;;;;2.40;1.38;;;13.60;99.90;;;;;;4981610;28;20067;-77
2022/05/27 05:09:51;;;;;;;4.45;1.83;;;13.50;99.90;;;;;;4945200;28;20510;-77
2022/05/27 05:12:22;;;;;;;2.35;1.67;;;13.60;99.90;;;;;;4993483;28;20121;-77
2022/05/27 05:14:47;;;;;;;3.72;1.40;;;13.50;99.90;;;;;;4971295;28;20061;-77
2022/05/27 05:17:13;;;;;;;3.10;1.48;;;13.60;99.90;;;;;;4962682;28;20034;-77
2022/05/27 05:19:38;;;;;;;4.47;1.63;;;13.60;99.90;;;;;;4982023;28;20425;-77
2022/05/27 05:22:04;;;;;;;1.52;1.38;;;13.70;99.90;;;;;;4975592;28;20065;-78
2022/05/27 05:24:30;;;;;;;5.03;2.30;;;13.70;99.90;;;;;;4968786;28;20035;-77
2022/05/27 05:26:55;;;;;;;2.17;1.70;;;13.60;99.90;;;;;;4982487;28;20097;-77
2022/05/27 05:29:21;;;;;;;1.20;1.10;;;13.60;99.90;;;;;;4980245;28;20058;-77
2022/05/27 05:31:46;;;;;;;4.55;2.00;;;13.60;99.90;;;;;;4996305;28;20170;-77
2022/05/27 05:34:12;;;;;;;2.88;1.85;;;13.60;99.90;;;;;;4934008;28;20106;-77
2022/05/27 05:36:37;;;;;;;2.83;1.77;;;13.60;99.90;;;;;;4979291;28;20123;-77
2022/05/27 05:39:03;;;;;;;2.55;1.73;;;13.60;99.90;;;;;;4975546;28;20122;-77
2022/05/27 05:41:33;;;;;;;1.95;1.35;;;13.70;99.90;;;;;;4994794;28;20030;-77
2022/05/27 05:43:59;;;;;;;2.67;1.55;;;13.70;99.90;;;;;;4994619;28;20584;-77
2022/05/27 05:46:25;;;;;;;3.08;2.08;;;13.70;99.90;;;;;;4965896;28;20135;-77
2022/05/27 05:48:50;;;;;;;1.63;1.38;;;13.70;99.90;;;;;;4979438;28;20062;-77
2022/05/27 05:51:16;;;;;;;2.80;1.48;;;13.80;99.90;;;;;;4995784;28;20423;-77
2022/05/27 05:53:42;;;;;;;3.40;2.05;;;13.80;99.90;;;;;;4982077;28;20026;-77
2022/05/27 05:56:07;;;;;;;4.43;1.77;;;13.90;99.90;;;;;;4979120;28;20041;-77
2022/05/27 05:58:33;;;;;;;3.53;1.88;;;13.90;99.90;;;;;;4979411;28;20384;-78
2022/05/27 06:00:58;;;;;;;5.03;1.60;;;13.90;99.90;;;;;;4944365;28;20474;-77
2022/05/27 06:03:24;;;;;;;3.70;1.80;;;14.00;99.90;;;;;;4955379;28;20045;-77
2022/05/27 06:05:51;;;;;;;2.53;1.95;;;14.10;99.90;;;;;;4979677;28;20422;-77
2022/05/27 06:08:18;;;;;;;6.25;1.50;;;14.10;99.90;;;;;;4961355;28;20081;-77
2022/05/27 06:10:46;;;;;;;3.47;1.63;;;14.30;99.90;;;;;;4993774;28;20053;-77
2022/05/27 06:13:12;;;;;;;2.22;2.03;;;14.40;99.90;;;;;;4930344;28;20406;-78
2022/05/27 06:15:37;;;;;;;3.15;2.00;;;14.40;99.90;;;;;;4976563;28;20030;-77
2022/05/27 06:18:05;;;;;;;5.03;2.70;;;14.50;99.90;;;;;;4997747;28;20114;-77
2022/05/27 06:20:31;;;;;;;1.92;1.63;;;14.60;99.90;;;;;;4945428;28;20482;-77
2022/05/27 06:22:56;;;;;;;6.20;2.95;;;14.70;99.90;;;;;;4963292;28;20065;-78
2022/05/27 06:25:22;;;;;;;4.18;2.60;;;14.80;99.90;;;;;;4943469;28;20070;-78
2022/05/27 06:27:48;;;;;;;2.78;1.73;;;14.90;99.90;;;;;;4934117;28;20088;-77
2022/05/27 06:35:23;;;;;;;4.97;2.50;;;15.10;99.90;;;;;;4993207;28;20027;-77
2022/05/27 06:37:49;;;;;;;5.13;1.70;;;15.20;99.90;;;;;;4948954;28;20030;-77
2022/05/27 06:40:15;;;;;;;3.38;1.85;;;15.20;99.90;;;;;;4944676;28;20038;-77
2022/05/27 06:42:41;;;;;;;2.88;1.67;;;15.20;99.90;;;;;;4978386;28;20136;-77
2022/05/27 06:45:08;;;;;;;3.97;2.17;;;15.30;99.90;;;;;;4964239;28;20513;-77
2022/05/27 06:47:34;;;;;;;2.85;1.88;;;15.30;99.90;;;;;;4995673;28;20101;-77
2022/05/27 06:49:59;;;;;;;2.75;1.80;;;15.50;99.90;;;;;;4945450;28;20062;-77
2022/05/27 06:52:25;;;;;;;3.45;1.65;;;15.60;99.90;;;;;;4980365;28;20454;-77
2022/05/27 06:54:51;;;;;;;4.07;1.88;;;15.70;99.90;;;;;;4962157;28;20043;-77
2022/05/27 06:57:17;;;;;;;2.85;1.83;;;15.90;99.90;;;;;;4961218;28;20034;-78
2022/05/27 06:59:42;;;;;;;5.00;2.40;;;16.00;99.90;;;;;;4956793;28;20642;-77
2022/05/27 07:02:08;;;;;;;7.25;2.10;;;16.10;99.90;;;;;;4950430;28;20027;-77
2022/05/27 07:04:33;;;;;;;7.40;2.72;;;16.40;99.90;;;;;;4958936;28;20559;-77
2022/05/27 07:06:59;;;;;;;9.15;3.40;;;16.60;99.90;;;;;;4934127;28;20034;-77
2022/05/27 07:09:25;;;;;;;4.53;2.17;;;16.90;99.90;;;;;;4978879;28;20070;-78
2022/05/27 07:11:52;;;;;;;9.70;2.70;;;16.90;99.90;;;;;;4928806;28;20058;-77
2022/05/27 07:14:18;;;;;;;5.32;2.30;;;17.10;99.90;;;;;;4931621;28;20030;-77
2022/05/27 07:16:44;;;;;;;6.78;2.22;;;17.40;99.90;;;;;;4961244;28;20433;-78
2022/05/27 07:19:10;;;;;;;3.63;1.90;;;17.60;99.90;;;;;;4935363;28;20036;-78
2022/05/27 07:21:39;;;;;;;6.38;2.35;;;17.80;99.90;;;;;;4960743;28;20398;-78
2022/05/27 07:24:09;;;;;;;6.18;2.30;;;18.00;99.90;;;;;;4977423;28;20030;-78
2022/05/27 07:26:35;;;;;;;5.97;2.38;;;18.20;99.90;;;;;;4974261;28;20142;-78
2022/05/27 07:29:01;;;;;;;4.65;1.65;;;18.30;99.90;;;;;;4962429;28;20038;-78
2022/05/27 07:31:27;;;;;;;6.60;2.53;;;18.20;99.90;;;;;;4960601;28;20494;-78
2022/05/27 07:33:52;;;;;;;8.43;4.75;;;18.30;99.90;;;;;;4971502;28;20034;-78
2022/05/27 07:36:18;;;;;;;9.75;3.75;;;18.30;99.90;;;;;;4981278;28;20409;-78
2022/05/27 07:38:43;;;;;;;11.63;3.65;;;18.50;99.90;;;;;;4978618;28;20572;-78
2022/05/27 07:41:09;;;;;;;8.43;3.10;;;18.60;99.90;;;;;;4942621;28;20085;-78
2022/05/27 07:43:35;;;;;;;8.20;3.38;;;18.60;99.90;;;;;;4983129;28;20031;-78
2022/05/27 07:46:00;;;;;;;9.50;3.72;;;18.60;99.90;;;;;;4944823;28;20034;-77
2022/05/27 07:48:26;;;;;;;5.95;3.53;;;18.80;99.90;;;;;;4993142;28;20410;-77
2022/05/27 07:50:52;;;;;;;5.38;3.30;;;18.90;99.90;;;;;;4944250;28;20079;-77
2022/05/27 07:53:19;;;;;;;10.88;3.50;;;18.60;99.90;;;;;;4974313;28;20016;-77
2022/05/27 07:55:44;;;;;;;5.47;3.15;;;18.60;99.90;;;;;;4977135;28;20039;-77
2022/05/27 07:58:10;;;;;;;4.75;2.40;;;18.70;99.90;;;;;;4945085;28;20194;-77
2022/05/27 08:00:37;;;;;;;8.93;3.88;;;18.70;99.90;;;;;;4975450;28;20042;-78
2022/05/27 08:03:03;;;;;;;9.77;3.90;;;18.70;99.90;;;;;;4929983;28;20121;-77
2022/05/27 08:05:29;;;;;;;8.48;3.80;;;19.00;99.90;;;;;;4962607;28;20122;-77
2022/05/27 08:07:56;;;;;;;5.25;3.30;;;19.30;99.90;;;;;;4996240;28;20556;-78
2022/05/27 08:10:24;;;;;;;14.25;4.20;;;19.20;99.90;;;;;;4943719;28;20035;-78
2022/05/27 08:12:50;;;;;;;7.55;3.65;;;19.20;99.90;;;;;;4979043;28;20050;-78
2022/05/27 08:15:16;;;;;;;6.90;3.50;;;19.60;99.90;;;;;;4961860;28;20446;-78
2022/05/27 08:17:41;;;;;;;10.25;3.70;;;19.90;99.90;;;;;;4976574;28;20537;-78
2022/05/27 08:20:09;;;;;;;3.85;3.17;;;20.10;99.90;;;;;;4947158;28;20099;-78
2022/05/27 08:22:34;;;;;;;11.40;4.07;;;20.30;99.90;;;;;;4981536;28;20078;-78
2022/05/27 08:25:00;;;;;;;9.98;4.57;;;20.40;99.90;;;;;;4960744;28;20039;-78
2022/05/27 08:27:25;;;;;;;9.35;4.43;;;20.60;99.90;;;;;;4982019;28;20035;-78
2022/05/27 08:29:51;;;;;;;4.72;3.45;;;20.70;99.90;;;;;;4996386;28;20093;-78
2022/05/27 08:32:17;;;;;;;6.57;3.45;;;20.70;99.90;;;;;;4949205;28;20038;-78
2022/05/27 08:40:18;;;;;;;7.00;3.00;;;20.70;99.90;;;;;;4996630;28;20065;-78
2022/05/27 08:43:35;;;;;;;5.32;3.08;;;20.90;99.90;;;;;;4983592;28;20031;-78
2022/05/27 08:46:13;;;;;;;9.77;3.13;;;21.00;99.90;;;;;;4938344;28;20050;-78
2022/05/27 08:48:40;;;;;;;9.13;3.53;;;21.30;99.90;;;;;;4983798;28;20034;-78
2022/05/27 08:51:49;;;;;;;4.55;2.42;;;21.50;99.90;;;;;;4946780;28;20064;-78
2022/05/27 08:54:19;;;;;;;6.10;2.00;;;21.60;99.90;;;;;;4965579;28;20400;-79
2022/05/27 09:00:03;;;;;;;12.25;3.08;;;22.00;99.90;;;;;;4966675;28;20053;-79
2022/05/27 09:02:36;;;;;;;3.72;1.80;;;22.20;99.90;;;;;;4965227;28;20030;-79
2022/05/27 09:05:07;;;;;;;5.38;2.20;;;22.00;99.90;;;;;;4978696;28;20659;-79
2022/05/27 09:07:55;;;;;;;5.70;2.47;;;22.00;99.90;;;;;;4979421;28;20042;-79
2022/05/27 09:10:35;;;;;;;6.95;2.58;;;22.10;99.90;;;;;;4994460;28;20129;-79
2022/05/27 09:13:35;;;;;;;7.88;2.63;;;21.70;99.90;;;;;;4977956;28;20506;-79
2022/05/27 09:16:06;;;;;;;5.15;2.10;;;21.70;99.90;;;;;;4960816;28;20073;-79
2022/05/27 09:18:46;;;;;;;8.32;2.88;;;21.60;99.90;;;;;;4960001;28;20039;-79
2022/05/27 09:21:17;;;;;;;7.53;2.63;;;21.70;99.90;;;;;;4963971;28;20130;-80
2022/05/27 09:23:43;;;;;;;8.18;3.25;;;21.60;99.90;;;;;;4994229;28;20125;-79
2022/05/27 09:26:28;;;;;;;10.18;2.72;;;21.50;99.90;;;;;;4996265;28;20117;-79
2022/05/27 09:29:06;;;;;;;9.35;2.35;;;21.50;99.90;;;;;;4982169;28;20027;-80
2022/05/27 09:31:37;;;;;;;12.45;3.08;;;21.40;99.00;;;;;;4966300;28;20030;-79
2022/05/27 09:34:03;;;;;;;4.90;1.88;;;21.80;99.90;;;;;;4950910;28;20034;-80
2022/05/27 09:36:36;;;;;;;8.77;2.28;;;21.80;99.90;;;;;;4949262;28;20036;-80
2022/05/27 09:39:04;;;;;;;8.68;2.55;;;22.00;99.90;;;;;;4937775;28;20378;-80
2022/05/27 09:41:38;;;;;;;7.90;2.55;;;22.10;96.90;;;;;;4979138;28;20035;-80
2022/05/27 09:44:12;;;;;;;7.30;2.15;;;22.00;97.40;;;;;;4989665;28;20068;-80
2022/05/27 09:46:38;;;;;;;9.15;2.42;;;22.20;97.30;;;;;;4981511;28;20038;-80
2022/05/27 09:49:05;;;;;;;13.63;2.05;;;22.50;98.40;;;;;;4968187;28;20088;-80
2022/05/27 09:51:31;;;;;;;8.90;2.03;;;22.60;96.30;;;;;;4978675;28;20046;-80
2022/05/27 09:54:04;;;;;;;10.98;2.35;;;22.60;98.20;;;;;;4983062;28;20030;-80
2022/05/27 09:57:02;;;;;;;5.90;1.85;;;22.80;96.70;;;;;;4992822;28;20177;-80
2022/05/27 09:59:48;;;;;;;9.60;2.25;;;22.90;92.90;;;;;;4955175;28;20034;-80
2022/05/27 10:02:26;;;;;;;8.65;2.33;;;23.10;94.00;;;;;;4961354;28;20106;-80
2022/05/27 10:04:54;;;;;;;6.70;2.35;;;23.20;95.00;;;;;;4973936;28;20467;-81
2022/05/27 10:07:33;;;;;;;4.38;2.00;;;23.20;94.90;;;;;;4948725;28;20035;-80
2022/05/27 10:10:17;;;;;;;10.65;2.28;;;23.50;94.10;;;;;;4955838;28;20144;-81
2022/05/27 10:12:43;;;;;;;10.68;2.47;;;23.60;95.00;;;;;;4978922;28;20485;-80
2022/05/27 10:15:14;;;;;;;6.85;2.00;;;23.50;95.50;;;;;;4992158;28;20080;-81
2022/05/27 10:17:39;;;;;;;9.57;2.97;;;23.60;95.30;;;;;;4985561;28;20088;-81
2022/05/27 10:20:29;;;;;;;8.07;3.20;;;23.60;93.90;;;;;;4963101;28;20038;-81
2022/05/27 10:23:00;;;;;;;6.75;2.60;;;23.70;92.60;;;;;;4979983;28;20038;-81
2022/05/27 10:25:34;;;;;;;9.95;3.05;;;23.80;92.90;;;;;;4996819;28;20035;-81
2022/05/27 10:28:00;;;;;;;6.65;2.58;;;24.00;91.60;;;;;;4984033;28;20046;-81
2022/05/27 10:30:30;;;;;;;9.10;2.85;;;24.30;92.10;;;;;;4986477;28;20084;-81
2022/05/27 10:33:19;;;;;;;11.32;2.70;;;24.50;91.70;;;;;;4983817;28;20375;-82
2022/05/27 10:35:46;;;;;;;12.73;2.78;;;24.50;91.10;;;;;;4980993;28;20031;-81
2022/05/27 10:38:36;;;;;;;9.57;2.55;;;24.20;84.70;;;;;;4994744;28;20218;-82
2022/05/27 10:41:28;;;;;;;5.95;2.30;;;24.30;88.60;;;;;;4962925;28;20058;-82
2022/05/27 10:44:07;;;;;;;8.80;2.60;;;24.40;88.60;;;;;;4978666;28;20035;-82
2022/05/27 10:46:54;;;;;;;12.80;2.67;;;24.20;88.80;;;;;;4980684;28;20058;-81
2022/05/27 10:49:44;;;;;;;11.10;3.17;;;24.20;86.80;;;;;;4966198;28;20535;-82
2022/05/27 10:52:17;;;;;;;9.68;2.78;;;24.00;86.30;;;;;;4980633;28;20437;-82
2022/05/27 10:55:09;;;;;;;6.80;2.08;;;24.00;86.20;;;;;;4980068;28;20573;-81
2022/05/27 11:04:00;;;;;;;6.57;2.22;;;24.40;84.50;;;;;;4952066;28;20073;-82
2022/05/27 11:06:56;;;;;;;5.95;1.98;;;24.70;85.60;;;;;;4905256;29;20477;-82
2022/05/27 11:09:28;;;;;;;5.30;1.93;;;24.50;82.00;;;;;;4959617;28;20031;-82
2022/05/27 11:12:05;;;;;;;10.75;2.38;;;24.60;81.20;;;;;;4965335;28;20030;-82
2022/05/27 11:17:36;;;;;;;;;;;24.70;76.60;;;;;;4968541;28;20041;-83
2022/05/27 11:20:01;;;;;;;4.47;1.98;;;25.00;78.00;;;;;;4980387;28;20238;-82
2022/05/27 11:22:37;;;;;;;11.57;2.60;;;25.20;78.10;;;;;;4980032;28;20393;-83
2022/05/27 11:25:21;;;;;;;;;;;25.50;79.50;;;;;;4978102;28;20035;-84
2022/05/27 11:28:04;;;;;;;9.55;2.47;;;25.70;75.50;;;;;;4945855;28;20316;-84
2022/05/27 11:30:58;;;;;;;8.07;2.30;;;26.00;75.70;;;;;;4977226;28;20062;-84
2022/05/27 11:33:43;;;;;;;5.88;2.42;;;26.20;76.60;;;;;;4961591;28;20038;-84
2022/05/27 11:36:20;;;;;;;8.57;2.58;;;26.10;72.50;;;;;;4968302;28;20223;-85
2022/05/27 11:39:16;;;;;;;8.90;2.53;;;26.00;73.00;;;;;;4951131;28;20880;-84
2022/05/27 11:42:04;;;;;;;7.38;1.88;;;26.30;74.00;;;;;;4978136;28;20035;-84
2022/05/27 11:44:52;;;;;;;8.98;2.45;;;26.30;74.20;;;;;;4944889;28;20594;-84
2022/05/27 11:47:33;;;;;;;9.80;2.88;;;26.30;73.10;;;;;;4946612;28;20022;-85
2022/05/27 11:50:14;;;;;;;9.90;2.90;;;26.50;69.50;;;;;;4980730;28;20481;-85
2022/05/27 11:52:53;;;;;;;10.10;2.33;;;26.50;70.80;;;;;;4978040;28;20054;-86
2022/05/27 11:55:27;;;;;;;9.65;2.55;;;26.50;67.50;;;;;;4983763;28;20030;-85
2022/05/27 11:58:08;;;;;;;6.13;2.20;;;26.70;67.40;;;;;;4984604;28;20035;-85
2022/05/27 12:00:36;;;;;;;12.68;3.10;;;26.40;69.50;;;;;;4979102;28;20034;-86
2022/05/27 12:03:17;;;;;;;7.07;1.92;;;26.20;67.30;;;;;;4979673;28;20398;-85
2022/05/27 12:05:45;;;;;;;10.95;2.17;;;26.50;68.10;;;;;;4956634;28;20037;-86
2022/05/27 12:08:36;;;;;;;7.18;2.30;;;26.60;65.90;;;;;;4967418;28;20833;-86
2022/05/27 12:11:02;;;;;;;6.47;1.80;;;26.70;65.80;;;;;;4965484;28;20046;-86
2022/05/27 12:13:32;;;;;;;7.57;1.95;;;26.80;64.60;;;;;;4984413;28;20108;-87
2022/05/27 12:15:59;;;;;;;8.20;2.67;;;26.50;63.60;;;;;;4966389;28;20129;-86
2022/05/27 12:18:43;;;;;;;6.70;2.10;;;26.60;62.90;;;;;;4977218;28;20054;-86
2022/05/27 12:21:11;;;;;;;4.93;1.77;;;26.50;62.60;;;;;;4972684;28;20125;-86
2022/05/27 12:23:53;;;;;;;7.05;1.85;;;26.60;63.90;;;;;;4999982;28;20081;-86
2022/05/27 12:26:21;;;;;;;9.00;2.28;;;26.50;63.10;;;;;;4967505;28;20502;-86
2022/05/27 12:28:47;;;;;;;6.88;2.65;;;26.90;62.40;;;;;;4982052;28;20114;-86
2022/05/27 12:31:12;;;;;;;4.82;1.52;;;26.80;63.40;;;;;;4970258;28;20110;-85
2022/05/27 12:33:38;;;;;;;6.90;1.63;;;26.90;60.70;;;;;;4981391;28;20030;-85
2022/05/27 12:36:24;;;;;;;7.97;1.85;;;27.00;60.20;;;;;;4998505;28;20585;-85
2022/05/27 12:38:52;;;;;;;7.40;2.58;;;27.20;61.90;;;;;;4992615;28;20058;-85
2022/05/27 12:41:40;;;;;;;6.00;2.08;;;26.80;59.20;;;;;;4936320;28;20100;-85
2022/05/27 12:44:22;;;;;;;7.80;2.42;;;26.50;62.00;;;;;;4964578;28;20390;-85
2022/05/27 12:46:52;;;;;;;9.70;2.28;;;26.60;61.70;;;;;;4983009;28;20034;-84
2022/05/27 12:49:25;;;;;;;9.40;2.40;;;26.50;59.40;;;;;;4931856;28;20076;-84
2022/05/27 12:51:50;;;;;;;8.85;2.30;;;26.90;56.90;;;;;;4998510;28;20038;-84
2022/05/27 12:54:46;;;;;;;9.75;2.20;;;26.80;58.30;;;;;;4947184;28;20474;-84
2022/05/27 13:03:35;;;;;;;7.60;2.28;;;26.70;57.70;;;;;;4981327;28;20725;-84
2022/05/27 13:06:04;;;;;;;9.10;2.47;;;26.60;57.50;;;;;;4978273;28;20429;-84
2022/05/27 13:08:51;;;;;;;6.38;2.00;;;26.50;57.80;;;;;;4980965;28;20059;-84
2022/05/27 13:11:23;;;;;;;7.63;2.05;;;26.90;58.70;;;;;;4981073;28;20034;-84
2022/05/27 13:14:08;;;;;;;11.68;1.70;;;27.10;57.10;;;;;;4980371;28;20509;-83
2022/05/27 13:17:20;;;;;;;7.03;2.17;;;27.50;56.30;;;;;;4979332;28;20064;-82
2022/05/27 13:19:51;;;;;;;9.45;2.15;;;27.60;55.90;;;;;;4986387;28;20041;-83
2022/05/27 13:22:57;;;;;;;8.50;2.13;;;27.60;56.50;;;;;;4951571;28;20037;-83
2022/05/27 13:25:34;;;;;;;6.05;2.10;;;27.40;56.60;;;;;;4957514;28;20429;-83
2022/05/27 13:28:05;;;;;;;9.57;2.10;;;27.40;54.80;;;;;;4988982;28;20066;-83
2022/05/27 13:30:49;;;;;;;10.25;2.08;;;27.20;54.80;;;;;;4977223;28;20501;-84
2022/05/27 13:33:15;;;;;;;8.10;2.17;;;27.20;54.60;;;;;;4976173;28;20026;-84
2022/05/27 13:35:42;;;;;;;9.63;2.25;;;27.30;55.00;;;;;;4944721;28;20038;-82
2022/05/27 13:38:09;;;;;;;5.93;1.65;;;27.60;54.80;;;;;;4961174;28;20038;-84
2022/05/27 13:40:35;;;;;;;7.18;2.17;;;27.80;54.90;;;;;;4966961;28;20047;-83
2022/05/27 13:43:14;;;;;;;8.02;2.00;;;28.10;52.10;;;;;;4964156;28;20030;-83
2022/05/27 13:45:41;;;;;;;9.70;2.10;;;28.00;52.00;;;;;;4976394;28;20057;-83
2022/05/27 13:48:32;;;;;;;11.48;2.55;;;27.70;52.60;;;;;;4991820;28;20027;-82
2022/05/27 13:51:15;;;;;;;8.85;2.50;;;27.40;51.10;;;;;;4997516;28;20529;-83